Time;durP1;ratioP1;P1;durP2;ratioP2;P2;SDS_P1;SDS_P2;PMS_P1;PMS_P2;Temp;Humidity;BMP_temperature;BMP_pressure;BME280_temperature;BME280_humidity;BME280_pressure;Samples;Min_cycle;Max_cycle;Signal;HPM_P1;HPM_P2
2023/08/08 00:00:25;;;;;;;3.40;1.50;;;;;;;;;;110366;267;39583;-39
2023/08/08 00:03:22;;;;;;;4.10;1.50;;;;;;;;;;110307;267;46068;-38
2023/08/08 00:05:58;;;;;;;4.90;1.50;;;;;;;;;;110345;267;43159;-38
2023/08/08 00:08:37;;;;;;;3.00;1.30;;;;;;;;;;110333;266;38719;-37
2023/08/08 00:11:13;;;;;;;3.80;1.50;;;;;;;;;;110379;266;40823;-39
2023/08/08 00:13:48;;;;;;;3.20;1.30;;;;;;;;;;110294;267;42752;-39
2023/08/08 00:16:28;;;;;;;3.50;1.40;;;;;;;;;;110345;267;42128;-39
2023/08/08 00:19:06;;;;;;;3.50;1.30;;;;;;;;;;110373;267;39744;-38
2023/08/08 00:21:48;;;;;;;3.70;1.30;;;;;;;;;;110312;266;40719;-38
2023/08/08 00:24:23;;;;;;;3.00;1.20;;;;;;;;;;110318;266;48245;-39
2023/08/08 00:27:00;;;;;;;3.30;1.30;;;;;;;;;;110197;266;175546;-39
2023/08/08 00:29:35;;;;;;;3.50;1.30;;;;;;;;;;110367;267;38800;-38
2023/08/08 00:32:09;;;;;;;3.20;1.50;;;;;;;;;;110305;267;39627;-39
2023/08/08 00:34:49;;;;;;;3.60;1.20;;;;;;;;;;110369;267;48233;-38
2023/08/08 00:37:22;;;;;;;3.90;1.50;;;;;;;;;;110358;266;42168;-37
2023/08/08 00:39:58;;;;;;;3.50;1.30;;;;;;;;;;110382;266;38695;-37
2023/08/08 00:42:37;;;;;;;4.20;1.50;;;;;;;;;;110320;266;39727;-38
2023/08/08 00:45:12;;;;;;;3.30;1.30;;;;;;;;;;110358;267;42872;-38
2023/08/08 00:47:55;;;;;;;3.90;1.40;;;;;;;;;;110325;267;42128;-39
2023/08/08 00:50:30;;;;;;;3.20;1.20;;;;;;;;;;110348;267;38896;-39
2023/08/08 00:53:07;;;;;;;4.20;1.50;;;;;;;;;;110340;266;39743;-37
2023/08/08 00:55:42;;;;;;;3.90;1.50;;;;;;;;;;110385;267;42758;-39
2023/08/08 00:58:17;;;;;;;3.40;1.20;;;;;;;;;;110370;266;42118;-38
2023/08/08 01:00:54;;;;;;;3.60;1.40;;;;;;;;;;110418;266;38687;-37
2023/08/08 01:03:31;;;;;;;3.70;1.30;;;;;;;;;;110377;266;39761;-37
2023/08/08 01:06:12;;;;;;;3.70;1.40;;;;;;;;;;110343;267;43653;-38
2023/08/08 01:08:55;;;;;;;3.50;1.20;;;;;;;;;;110338;267;42027;-37
2023/08/08 01:11:32;;;;;;;4.50;1.30;;;;;;;;;;110387;266;38728;-38
2023/08/08 01:14:07;;;;;;;3.20;1.20;;;;;;;;;;110311;267;39409;-38
2023/08/08 01:16:42;;;;;;;3.80;1.30;;;;;;;;;;110381;266;42723;-38
2023/08/08 01:19:30;;;;;;;3.70;1.30;;;;;;;;;;110401;267;43163;-38
2023/08/08 01:22:12;;;;;;;3.60;1.20;;;;;;;;;;110318;267;39180;-38
2023/08/08 01:24:51;;;;;;;2.90;1.20;;;;;;;;;;110302;267;39542;-38
2023/08/08 01:27:26;;;;;;;3.40;1.20;;;;;;;;;;110337;267;42679;-38
2023/08/08 01:30:01;;;;;;;3.20;1.30;;;;;;;;;;110379;267;42292;-37
2023/08/08 01:32:34;;;;;;;3.50;1.30;;;;;;;;;;110395;267;38722;-38
2023/08/08 01:35:11;;;;;;;4.00;1.40;;;;;;;;;;110329;267;40635;-39
2023/08/08 01:37:55;;;;;;;4.00;1.50;;;;;;;;;;110365;267;42609;-38
2023/08/08 01:40:39;;;;;;;3.90;1.50;;;;;;;;;;110330;267;43235;-39
2023/08/08 01:43:18;;;;;;;2.90;1.30;;;;;;;;;;110344;266;38729;-38
2023/08/08 01:45:56;;;;;;;3.20;1.30;;;;;;;;;;110337;266;39263;-39
2023/08/08 01:48:32;;;;;;;3.80;1.60;;;;;;;;;;110365;267;42725;-41
2023/08/08 01:51:09;;;;;;;3.40;1.30;;;;;;;;;;110354;267;43436;-39
2023/08/08 01:53:43;;;;;;;4.10;1.30;;;;;;;;;;110295;267;191873;-37
2023/08/08 01:56:21;;;;;;;3.10;1.30;;;;;;;;;;109701;267;894899;-39
2023/08/08 01:58:57;;;;;;;3.90;1.30;;;;;;;;;;110157;267;175552;-39
2023/08/08 02:01:36;;;;;;;4.70;1.30;;;;;;;;;;110362;267;43254;-38
2023/08/08 02:04:12;;;;;;;4.00;1.30;;;;;;;;;;110287;267;39831;-38
2023/08/08 02:06:46;;;;;;;3.80;1.40;;;;;;;;;;110255;267;175578;-38
2023/08/08 02:09:21;;;;;;;3.40;1.40;;;;;;;;;;110373;266;42732;-38
2023/08/08 02:11:58;;;;;;;3.40;1.40;;;;;;;;;;110341;267;41787;-38
2023/08/08 02:14:32;;;;;;;3.80;1.30;;;;;;;;;;110350;267;39929;-39
2023/08/08 02:17:10;;;;;;;3.60;1.40;;;;;;;;;;110405;267;39908;-37
2023/08/08 02:19:45;;;;;;;3.90;1.40;;;;;;;;;;110348;267;43950;-38
2023/08/08 02:22:21;;;;;;;5.00;1.30;;;;;;;;;;109708;267;894135;-38
2023/08/08 02:25:00;;;;;;;3.30;1.30;;;;;;;;;;110330;267;38728;-39
2023/08/08 02:27:35;;;;;;;5.00;1.30;;;;;;;;;;110351;267;39327;-39
2023/08/08 02:30:19;;;;;;;3.80;1.40;;;;;;;;;;110336;266;43866;-39
2023/08/08 02:32:52;;;;;;;4.00;1.40;;;;;;;;;;110396;267;42073;-38
2023/08/08 02:35:29;;;;;;;3.70;1.40;;;;;;;;;;110339;267;38851;-38
2023/08/08 02:38:04;;;;;;;3.60;1.30;;;;;;;;;;110350;267;39607;-38
2023/08/08 02:40:39;;;;;;;3.40;1.20;;;;;;;;;;110376;267;42622;-38
2023/08/08 02:43:16;;;;;;;4.30;1.40;;;;;;;;;;110373;267;41818;-38
2023/08/08 02:45:53;;;;;;;3.60;1.20;;;;;;;;;;110314;266;39009;-37
2023/08/08 02:48:27;;;;;;;3.40;1.10;;;;;;;;;;110378;267;39501;-38
2023/08/08 02:51:06;;;;;;;3.70;1.50;;;;;;;;;;110391;267;42648;-39
2023/08/08 02:53:43;;;;;;;3.60;1.40;;;;;;;;;;110383;267;42117;-38
2023/08/08 02:56:23;;;;;;;3.70;1.40;;;;;;;;;;110316;267;38854;-38
2023/08/08 02:58:59;;;;;;;3.70;1.40;;;;;;;;;;110340;266;39531;-38
2023/08/08 03:01:33;;;;;;;3.30;1.20;;;;;;;;;;110335;267;42745;-38
2023/08/08 03:04:07;;;;;;;4.20;1.50;;;;;;;;;;110402;267;42073;-38
2023/08/08 03:06:43;;;;;;;3.60;1.20;;;;;;;;;;110316;267;39779;-39
2023/08/08 03:09:20;;;;;;;4.20;1.50;;;;;;;;;;110336;267;40885;-38
2023/08/08 03:11:53;;;;;;;3.60;1.10;;;;;;;;;;110361;267;45175;-39
2023/08/08 03:14:29;;;;;;;4.10;1.40;;;;;;;;;;110380;267;41730;-37
2023/08/08 03:17:05;;;;;;;3.90;1.30;;;;;;;;;;109658;267;892219;-40
2023/08/08 03:19:41;;;;;;;4.10;1.30;;;;;;;;;;110357;267;39618;-38
2023/08/08 03:22:22;;;;;;;3.00;1.10;;;;;;;;;;110383;267;42891;-38
2023/08/08 03:24:56;;;;;;;3.10;1.10;;;;;;;;;;110378;267;41956;-37
2023/08/08 03:27:31;;;;;;;3.50;1.40;;;;;;;;;;110330;267;38820;-38
2023/08/08 03:30:20;;;;;;;3.80;1.30;;;;;;;;;;110397;267;39331;-37
2023/08/08 03:32:54;;;;;;;4.10;1.40;;;;;;;;;;110353;267;42926;-38
2023/08/08 03:35:32;;;;;;;3.80;1.40;;;;;;;;;;110351;266;42032;-38
2023/08/08 03:38:08;;;;;;;6.10;1.30;;;;;;;;;;110325;267;38861;-38
2023/08/08 03:40:44;;;;;;;3.50;1.40;;;;;;;;;;110382;267;39339;-38
2023/08/08 03:43:21;;;;;;;3.80;1.40;;;;;;;;;;110311;266;42689;-39
2023/08/08 03:46:00;;;;;;;4.40;1.40;;;;;;;;;;110363;267;42194;-38
2023/08/08 03:48:37;;;;;;;5.00;1.40;;;;;;;;;;110377;266;45995;-38
2023/08/08 03:51:14;;;;;;;4.30;1.40;;;;;;;;;;110356;267;39543;-39
2023/08/08 03:53:49;;;;;;;4.10;1.40;;;;;;;;;;110349;267;42917;-37
2023/08/08 03:56:24;;;;;;;3.60;1.30;;;;;;;;;;110220;267;175576;-39
2023/08/08 03:59:03;;;;;;;4.50;1.30;;;;;;;;;;110394;266;38445;-38
2023/08/08 04:01:39;;;;;;;4.10;1.40;;;;;;;;;;110363;267;39587;-38
2023/08/08 04:04:16;;;;;;;4.50;1.60;;;;;;;;;;110324;267;42751;-37
2023/08/08 04:06:56;;;;;;;4.50;1.50;;;;;;;;;;110301;267;42349;-38
2023/08/08 04:09:33;;;;;;;3.30;1.40;;;;;;;;;;110256;267;38676;-38
2023/08/08 04:12:08;;;;;;;3.90;1.40;;;;;;;;;;110371;267;39340;-38
2023/08/08 04:14:43;;;;;;;3.80;1.30;;;;;;;;;;110364;266;42806;-39
2023/08/08 04:17:20;;;;;;;3.50;1.30;;;;;;;;;;110351;267;42328;-38
2023/08/08 04:19:54;;;;;;;4.00;1.50;;;;;;;;;;110362;266;38757;-38
2023/08/08 04:22:30;;;;;;;3.10;1.30;;;;;;;;;;110361;266;39723;-37
2023/08/08 04:25:09;;;;;;;3.10;1.20;;;;;;;;;;110346;267;42908;-38
2023/08/08 04:27:46;;;;;;;4.20;1.40;;;;;;;;;;110331;267;41917;-38
2023/08/08 04:30:26;;;;;;;3.70;1.50;;;;;;;;;;110319;266;38644;-37
2023/08/08 04:33:04;;;;;;;3.90;1.40;;;;;;;;;;110382;266;39764;-38
2023/08/08 04:35:40;;;;;;;3.70;1.40;;;;;;;;;;110339;266;42845;-38
2023/08/08 04:38:16;;;;;;;3.40;1.30;;;;;;;;;;110327;266;42420;-37
2023/08/08 04:40:54;;;;;;;3.70;1.30;;;;;;;;;;110394;265;40998;-37
2023/08/08 04:43:30;;;;;;;4.30;1.60;;;;;;;;;;110424;265;39775;-39
2023/08/08 04:46:10;;;;;;;3.80;1.40;;;;;;;;;;110400;265;42922;-38
2023/08/08 04:48:45;;;;;;;3.90;1.30;;;;;;;;;;110398;265;41993;-38
2023/08/08 04:51:26;;;;;;;3.30;1.30;;;;;;;;;;110453;265;38841;-37
2023/08/08 04:54:04;;;;;;;3.70;1.30;;;;;;;;;;110426;265;40998;-38
2023/08/08 04:56:39;;;;;;;3.10;1.30;;;;;;;;;;110431;265;42776;-38
2023/08/08 04:59:19;;;;;;;3.60;1.10;;;;;;;;;;110366;265;42060;-37
2023/08/08 05:02:00;;;;;;;4.00;1.20;;;;;;;;;;110402;265;38488;-39
2023/08/08 05:04:35;;;;;;;2.80;1.20;;;;;;;;;;110420;265;40853;-39
2023/08/08 05:07:12;;;;;;;3.70;1.30;;;;;;;;;;110467;265;44333;-38
2023/08/08 05:09:53;;;;;;;3.40;1.30;;;;;;;;;;110353;265;43278;-39
2023/08/08 05:12:29;;;;;;;3.60;1.20;;;;;;;;;;110445;265;39967;-38
2023/08/08 05:15:11;;;;;;;3.60;1.30;;;;;;;;;;110425;265;39369;-38
2023/08/08 05:17:49;;;;;;;3.80;1.30;;;;;;;;;;110448;265;42962;-38
2023/08/08 05:20:27;;;;;;;3.70;1.60;;;;;;;;;;110430;265;47761;-38
2023/08/08 05:23:07;;;;;;;4.10;1.30;;;;;;;;;;110523;265;38652;-38
2023/08/08 05:25:43;;;;;;;3.40;1.20;;;;;;;;;;110426;265;176817;-40
2023/08/08 05:28:16;;;;;;;4.00;1.30;;;;;;;;;;110550;265;42812;-38
2023/08/08 05:30:53;;;;;;;4.00;1.30;;;;;;;;;;110616;265;49465;-38
2023/08/08 05:33:28;;;;;;;3.50;1.30;;;;;;;;;;110605;265;38715;-38
2023/08/08 05:36:10;;;;;;;3.90;1.30;;;;;;;;;;110615;265;39649;-38
2023/08/08 05:38:46;;;;;;;3.60;1.30;;;;;;;;;;110447;266;42741;-40
2023/08/08 05:41:25;;;;;;;3.80;1.30;;;;;;;;;;110508;266;42248;-38
2023/08/08 05:44:06;;;;;;;3.60;1.20;;;;;;;;;;110515;266;38823;-38
2023/08/08 05:46:43;;;;;;;3.40;1.20;;;;;;;;;;110494;266;39718;-44
2023/08/08 05:49:25;;;;;;;3.60;1.30;;;;;;;;;;110473;266;43777;-38
2023/08/08 05:52:00;;;;;;;3.90;1.30;;;;;;;;;;110448;266;42003;-39
2023/08/08 05:54:38;;;;;;;4.50;1.40;;;;;;;;;;110442;266;38849;-38
2023/08/08 05:57:18;;;;;;;3.00;1.10;;;;;;;;;;110504;266;40878;-38
2023/08/08 05:59:52;;;;;;;3.50;1.10;;;;;;;;;;110415;265;175601;-39
2023/08/08 06:02:27;;;;;;;3.80;1.30;;;;;;;;;;110569;265;41770;-39
2023/08/08 06:05:04;;;;;;;3.50;1.30;;;;;;;;;;110592;265;39964;-38
2023/08/08 06:07:42;;;;;;;3.40;1.20;;;;;;;;;;110579;265;39642;-38
2023/08/08 06:10:16;;;;;;;4.20;1.40;;;;;;;;;;110515;265;42771;-38
2023/08/08 06:12:53;;;;;;;3.50;1.20;;;;;;;;;;110605;265;43452;-41
2023/08/08 06:15:30;;;;;;;3.60;1.30;;;;;;;;;;110558;265;38689;-40
2023/08/08 06:18:05;;;;;;;3.80;1.20;;;;;;;;;;110579;265;40810;-40
2023/08/08 06:20:44;;;;;;;3.60;1.30;;;;;;;;;;110497;265;42866;-38
2023/08/08 06:23:22;;;;;;;3.60;1.30;;;;;;;;;;110570;265;41939;-40
2023/08/08 06:26:02;;;;;;;3.30;1.30;;;;;;;;;;110532;265;38419;-40
2023/08/08 06:28:40;;;;;;;3.50;1.30;;;;;;;;;;110520;265;39624;-38
2023/08/08 06:31:16;;;;;;;4.60;1.40;;;;;;;;;;110479;265;42755;-39
2023/08/08 06:33:55;;;;;;;4.10;1.50;;;;;;;;;;110593;265;41995;-41
2023/08/08 06:36:40;;;;;;;3.90;1.30;;;;;;;;;;110563;265;38477;-39
2023/08/08 06:39:21;;;;;;;4.20;1.40;;;;;;;;;;110545;265;39669;-38
2023/08/08 06:42:00;;;;;;;4.40;1.30;;;;;;;;;;110517;265;42527;-37
2023/08/08 06:44:44;;;;;;;3.80;1.40;;;;;;;;;;110589;265;42190;-39
2023/08/08 06:47:18;;;;;;;4.10;1.40;;;;;;;;;;110603;265;39755;-37
2023/08/08 06:49:52;;;;;;;3.80;1.30;;;;;;;;;;110587;265;39675;-38
2023/08/08 06:52:25;;;;;;;4.30;1.40;;;;;;;;;;110599;265;43052;-46
2023/08/08 06:55:11;;;;;;;5.10;1.40;;;;;;;;;;110244;259;41996;-37
2023/08/08 06:57:49;;;;;;;5.30;1.30;;;;;;;;;;110386;266;40514;-41
2023/08/08 07:00:28;;;;;;;4.40;1.40;;;;;;;;;;110456;262;41399;-36
2023/08/08 07:03:02;;;;;;;4.30;1.30;;;;;;;;;;110561;262;42815;-41
2023/08/08 07:05:37;;;;;;;4.60;1.70;;;;;;;;;;110575;265;42301;-37
2023/08/08 07:08:11;;;;;;;3.70;1.40;;;;;;;;;;110585;265;38640;-40
2023/08/08 07:10:45;;;;;;;4.10;1.30;;;;;;;;;;110503;265;39794;-37
2023/08/08 07:13:21;;;;;;;4.50;1.40;;;;;;;;;;110559;265;42686;-36
2023/08/08 07:15:56;;;;;;;4.20;1.40;;;;;;;;;;110568;259;41917;-37
2023/08/08 07:18:29;;;;;;;4.40;1.50;;;;;;;;;;110563;265;38685;-38
2023/08/08 07:21:06;;;;;;;4.50;1.40;;;;;;;;;;110566;265;39705;-39
2023/08/08 07:23:42;;;;;;;4.60;1.30;;;;;;;;;;110582;259;42943;-39
2023/08/08 07:26:17;;;;;;;3.40;1.40;;;;;;;;;;110540;259;42010;-39
2023/08/08 07:28:51;;;;;;;5.80;1.50;;;;;;;;;;110337;265;38769;-36
2023/08/08 07:31:28;;;;;;;4.40;1.50;;;;;;;;;;110529;265;38544;-36
2023/08/08 07:34:03;;;;;;;4.50;1.40;;;;;;;;;;110540;265;43785;-37
2023/08/08 07:36:40;;;;;;;4.10;1.30;;;;;;;;;;110537;265;42200;-37
2023/08/08 07:39:21;;;;;;;4.30;1.50;;;;;;;;;;110492;265;41043;-39
2023/08/08 07:41:58;;;;;;;4.10;1.40;;;;;;;;;;110455;266;39587;-40
2023/08/08 07:44:37;;;;;;;3.80;1.30;;;;;;;;;;110468;262;42746;-39
2023/08/08 07:47:14;;;;;;;3.40;1.20;;;;;;;;;;110474;266;42172;-37
2023/08/08 07:49:56;;;;;;;4.20;1.20;;;;;;;;;;110285;266;38688;-36
2023/08/08 07:52:33;;;;;;;4.90;1.60;;;;;;;;;;110502;262;39547;-37
2023/08/08 07:55:13;;;;;;;3.80;1.40;;;;;;;;;;110512;266;42734;-38
2023/08/08 07:57:52;;;;;;;3.50;1.20;;;;;;;;;;110515;266;43398;-40
2023/08/08 08:00:30;;;;;;;4.40;1.30;;;;;;;;;;110371;259;38686;-39
2023/08/08 08:03:06;;;;;;;3.50;1.10;;;;;;;;;;110453;265;40608;-36
2023/08/08 08:05:43;;;;;;;3.60;1.20;;;;;;;;;;110474;265;42437;-38
2023/08/08 08:08:17;;;;;;;3.20;1.20;;;;;;;;;;110357;266;175531;-43
2023/08/08 08:10:51;;;;;;;4.00;1.20;;;;;;;;;;110355;259;38719;-39
2023/08/08 08:13:34;;;;;;;3.40;1.30;;;;;;;;;;110394;265;39516;-40
2023/08/08 08:16:09;;;;;;;3.80;1.30;;;;;;;;;;110475;266;42601;-40
2023/08/08 08:18:50;;;;;;;4.00;1.40;;;;;;;;;;110520;266;42536;-41
2023/08/08 08:21:25;;;;;;;3.50;1.50;;;;;;;;;;110495;259;38643;-40
2023/08/08 08:24:01;;;;;;;3.80;1.40;;;;;;;;;;110453;259;39853;-40
2023/08/08 08:26:37;;;;;;;3.40;1.30;;;;;;;;;;110405;262;42881;-41
2023/08/08 08:29:15;;;;;;;3.90;1.40;;;;;;;;;;110476;265;42121;-40
2023/08/08 08:31:55;;;;;;;3.80;1.20;;;;;;;;;;110506;258;38738;-37
2023/08/08 08:34:32;;;;;;;4.50;1.40;;;;;;;;;;110537;259;45445;-37
2023/08/08 08:37:13;;;;;;;3.10;1.10;;;;;;;;;;110419;262;42606;-36
2023/08/08 08:39:47;;;;;;;3.90;1.40;;;;;;;;;;110494;265;43350;-37
2023/08/08 08:42:23;;;;;;;3.40;1.20;;;;;;;;;;110492;262;38853;-36
2023/08/08 08:45:00;;;;;;;5.50;1.40;;;;;;;;;;110243;267;46003;-38
2023/08/08 08:47:35;;;;;;;3.30;1.10;;;;;;;;;;110306;266;42792;-36
2023/08/08 08:50:17;;;;;;;3.50;1.30;;;;;;;;;;110297;259;43557;-36
2023/08/08 08:52:57;;;;;;;3.50;1.20;;;;;;;;;;110068;260;175572;-36
2023/08/08 08:55:31;;;;;;;4.00;1.20;;;;;;;;;;110279;259;39599;-35
2023/08/08 08:58:08;;;;;;;3.70;1.10;;;;;;;;;;110270;267;42689;-37
2023/08/08 09:00:46;;;;;;;3.50;1.20;;;;;;;;;;110339;266;41999;-36
2023/08/08 09:03:20;;;;;;;3.10;1.00;;;;;;;;;;110269;267;39972;-36
2023/08/08 09:05:59;;;;;;;3.00;1.10;;;;;;;;;;110345;267;39641;-40
2023/08/08 09:08:35;;;;;;;4.50;1.10;;;;;;;;;;110319;259;42799;-37
2023/08/08 09:11:09;;;;;;;3.30;1.20;;;;;;;;;;110291;267;41998;-36
2023/08/08 09:13:43;;;;;;;3.50;1.10;;;;;;;;;;110275;263;39034;-36
2023/08/08 09:16:19;;;;;;;3.50;1.30;;;;;;;;;;110292;263;39596;-36
2023/08/08 09:18:55;;;;;;;3.20;1.10;;;;;;;;;;110302;265;42815;-39
2023/08/08 09:21:36;;;;;;;2.90;1.00;;;;;;;;;;110281;267;42131;-36
2023/08/08 09:24:14;;;;;;;3.90;1.30;;;;;;;;;;110221;266;39861;-36
2023/08/08 09:26:48;;;;;;;3.70;1.20;;;;;;;;;;110369;259;39564;-40
2023/08/08 09:29:23;;;;;;;4.90;1.40;;;;;;;;;;110271;267;42692;-39
2023/08/08 09:31:58;;;;;;;3.70;1.20;;;;;;;;;;110328;267;44331;-36
2023/08/08 09:34:33;;;;;;;3.80;1.30;;;;;;;;;;110283;267;38850;-38
2023/08/08 09:37:08;;;;;;;3.80;1.30;;;;;;;;;;110385;259;39372;-38
2023/08/08 09:39:43;;;;;;;3.60;1.20;;;;;;;;;;110343;267;42853;-38
2023/08/08 09:42:19;;;;;;;3.60;1.10;;;;;;;;;;110340;267;43169;-36
2023/08/08 09:44:56;;;;;;;2.70;1.10;;;;;;;;;;110279;267;38794;-38
2023/08/08 09:47:31;;;;;;;3.20;1.10;;;;;;;;;;110346;267;39295;-40
2023/08/08 09:50:10;;;;;;;3.10;1.00;;;;;;;;;;110394;267;42906;-40
2023/08/08 09:52:50;;;;;;;3.60;1.20;;;;;;;;;;110312;267;43270;-38
2023/08/08 09:55:25;;;;;;;3.30;1.10;;;;;;;;;;110356;266;39117;-40
2023/08/08 09:57:59;;;;;;;2.70;1.10;;;;;;;;;;110308;263;85814;-39
2023/08/08 10:00:48;;;;;;;3.10;1.00;;;;;;;;;;110275;267;42899;-39
2023/08/08 10:03:22;;;;;;;3.70;0.90;;;;;;;;;;110296;259;42030;-39
2023/08/08 10:05:58;;;;;;;3.50;1.10;;;;;;;;;;110273;267;38859;-38
2023/08/08 10:08:35;;;;;;;3.90;0.90;;;;;;;;;;110339;267;41840;-40
2023/08/08 10:11:11;;;;;;;2.70;1.10;;;;;;;;;;110351;267;43955;-40
2023/08/08 10:13:57;;;;;;;3.40;1.00;;;;;;;;;;110421;263;41962;-39
2023/08/08 10:16:35;;;;;;;3.70;1.20;;;;;;;;;;110313;259;40233;-38
2023/08/08 10:19:09;;;;;;;2.90;0.80;;;;;;;;;;110369;267;39330;-38
2023/08/08 10:21:46;;;;;;;3.40;1.00;;;;;;;;;;110330;267;42489;-43
2023/08/08 10:24:23;;;;;;;2.80;0.80;;;;;;;;;;110396;267;42022;-41
2023/08/08 10:27:01;;;;;;;3.30;1.00;;;;;;;;;;110445;267;45372;-43
2023/08/08 10:29:44;;;;;;;4.00;1.30;;;;;;;;;;110348;267;39517;-43
2023/08/08 10:32:27;;;;;;;3.70;1.10;;;;;;;;;;110335;267;42850;-42
2023/08/08 10:35:09;;;;;;;2.90;0.80;;;;;;;;;;110293;267;42028;-43
2023/08/08 10:37:54;;;;;;;4.20;1.30;;;;;;;;;;110385;267;38688;-41
2023/08/08 10:40:37;;;;;;;5.70;1.10;;;;;;;;;;110397;264;39558;-42
2023/08/08 10:43:15;;;;;;;3.30;1.10;;;;;;;;;;110373;267;44001;-47
2023/08/08 10:45:53;;;;;;;3.90;1.00;;;;;;;;;;109688;259;892487;-40
2023/08/08 10:48:55;;;;;;;3.50;1.00;;;;;;;;;;110405;263;39917;-42
2023/08/08 10:51:38;;;;;;;2.60;0.90;;;;;;;;;;110344;267;39757;-40
2023/08/08 10:54:20;;;;;;;3.50;1.00;;;;;;;;;;110388;267;42585;-45
2023/08/08 10:56:55;;;;;;;;;;;;;;;;;;110351;264;43405;-41
2023/08/08 10:59:37;;;;;;;3.20;1.10;;;;;;;;;;110436;263;38823;-42
2023/08/08 11:02:16;;;;;;;3.50;0.90;;;;;;;;;;110382;259;39633;-43
2023/08/08 11:04:50;;;;;;;3.20;0.90;;;;;;;;;;110366;267;42735;-41
2023/08/08 11:07:24;;;;;;;2.30;0.80;;;;;;;;;;110325;259;42168;-41
2023/08/08 11:09:59;;;;;;;3.40;1.00;;;;;;;;;;110396;267;38695;-43
2023/08/08 11:12:35;;;;;;;3.30;1.00;;;;;;;;;;110380;263;39607;-42
2023/08/08 11:15:13;;;;;;;3.50;1.00;;;;;;;;;;110388;264;42876;-43
2023/08/08 11:17:52;;;;;;;2.90;0.90;;;;;;;;;;110317;267;41745;-40
2023/08/08 11:20:30;;;;;;;2.70;0.80;;;;;;;;;;110411;266;38686;-51
2023/08/08 11:23:10;;;;;;;2.80;1.00;;;;;;;;;;110342;267;39839;-40
2023/08/08 11:25:47;;;;;;;2.60;0.80;;;;;;;;;;110362;263;42879;-43
2023/08/08 11:28:40;;;;;;;2.90;0.80;;;;;;;;;;110411;259;47877;-42
2023/08/08 11:31:15;;;;;;;2.90;0.80;;;;;;;;;;110424;267;38833;-41
2023/08/08 11:33:54;;;;;;;2.80;0.80;;;;;;;;;;110395;267;40983;-40
2023/08/08 11:36:28;;;;;;;2.60;0.80;;;;;;;;;;110367;267;43894;-39
2023/08/08 11:39:08;;;;;;;2.70;0.80;;;;;;;;;;110360;267;42029;-45
2023/08/08 11:41:45;;;;;;;3.60;1.10;;;;;;;;;;110404;267;38483;-48
2023/08/08 11:44:19;;;;;;;2.50;0.80;;;;;;;;;;110324;259;39745;-45
2023/08/08 11:46:53;;;;;;;2.30;0.80;;;;;;;;;;110357;267;43781;-40
2023/08/08 11:49:29;;;;;;;2.40;0.80;;;;;;;;;;110412;267;42042;-40
2023/08/08 11:52:06;;;;;;;2.80;0.80;;;;;;;;;;110408;267;40367;-42
2023/08/08 11:54:40;;;;;;;2.50;0.80;;;;;;;;;;110387;263;40965;-41
2023/08/08 11:57:19;;;;;;;2.60;0.90;;;;;;;;;;110337;259;42871;-41
2023/08/08 11:59:56;;;;;;;2.50;0.90;;;;;;;;;;110411;267;41825;-44
2023/08/08 12:02:31;;;;;;;1.70;0.60;;;;;;;;;;110392;267;40104;-41
2023/08/08 12:05:16;;;;;;;2.80;0.80;;;;;;;;;;110410;266;40831;-41
2023/08/08 12:07:52;;;;;;;3.10;0.80;;;;;;;;;;110369;266;42821;-42
2023/08/08 12:10:28;;;;;;;2.20;0.80;;;;;;;;;;110356;267;42006;-41
2023/08/08 12:13:07;;;;;;;1.90;0.70;;;;;;;;;;110451;266;39872;-42
2023/08/08 12:15:40;;;;;;;2.20;0.70;;;;;;;;;;110380;267;39618;-41
2023/08/08 12:18:16;;;;;;;2.40;0.70;;;;;;;;;;110416;267;42745;-47
2023/08/08 12:20:51;;;;;;;2.10;0.60;;;;;;;;;;110297;267;42302;-41
2023/08/08 12:23:27;;;;;;;2.00;0.60;;;;;;;;;;110395;267;38798;-42
2023/08/08 12:26:01;;;;;;;2.80;0.70;;;;;;;;;;110360;259;39629;-41
2023/08/08 12:28:36;;;;;;;1.80;0.60;;;;;;;;;;110338;267;42517;-43
2023/08/08 12:31:09;;;;;;;2.60;0.70;;;;;;;;;;110431;263;42255;-42
2023/08/08 12:33:43;;;;;;;1.60;0.60;;;;;;;;;;110300;267;38709;-44
2023/08/08 12:36:17;;;;;;;2.00;0.60;;;;;;;;;;110389;263;40842;-48
2023/08/08 12:38:51;;;;;;;1.50;0.60;;;;;;;;;;110205;259;195956;-43
2023/08/08 12:41:25;;;;;;;2.30;0.80;;;;;;;;;;110375;267;42003;-40
2023/08/08 12:43:58;;;;;;;2.20;0.80;;;;;;;;;;110375;267;38951;-42
2023/08/08 12:46:32;;;;;;;2.80;0.80;;;;;;;;;;110450;267;40920;-45
2023/08/08 12:49:09;;;;;;;1.70;0.60;;;;;;;;;;110314;259;42693;-48
2023/08/08 12:51:42;;;;;;;2.30;0.80;;;;;;;;;;110378;263;42019;-44
2023/08/08 12:54:18;;;;;;;2.00;0.70;;;;;;;;;;110410;266;38792;-44
2023/08/08 12:56:53;;;;;;;2.20;0.70;;;;;;;;;;110401;267;39643;-43
2023/08/08 12:59:26;;;;;;;2.60;0.80;;;;;;;;;;110368;266;42938;-42
2023/08/08 13:02:00;;;;;;;2.40;0.80;;;;;;;;;;110371;263;42052;-42
2023/08/08 13:04:33;;;;;;;1.80;0.60;;;;;;;;;;110370;259;38699;-42
2023/08/08 13:07:10;;;;;;;4.10;1.00;;;;;;;;;;110400;267;39738;-44
2023/08/08 13:09:44;;;;;;;3.00;0.90;;;;;;;;;;110166;267;175642;-40
2023/08/08 13:12:21;;;;;;;2.40;0.80;;;;;;;;;;110339;267;42020;-41
2023/08/08 13:14:55;;;;;;;4.50;1.20;;;;;;;;;;110320;259;38482;-41
2023/08/08 13:17:30;;;;;;;2.80;1.10;;;;;;;;;;110341;259;40073;-41
2023/08/08 13:20:05;;;;;;;4.40;1.40;;;;;;;;;;110316;259;43245;-40
2023/08/08 13:22:39;;;;;;;2.80;0.90;;;;;;;;;;110455;259;42163;-45
2023/08/08 13:25:13;;;;;;;4.00;1.10;;;;;;;;;;110366;267;40094;-47
2023/08/08 13:27:50;;;;;;;3.60;1.00;;;;;;;;;;110385;267;39583;-42
2023/08/08 13:30:26;;;;;;;3.80;1.20;;;;;;;;;;110353;263;42884;-42
2023/08/08 13:33:00;;;;;;;3.70;1.00;;;;;;;;;;110441;267;44321;-45
2023/08/08 13:35:35;;;;;;;3.60;1.00;;;;;;;;;;110393;259;39968;-42
2023/08/08 13:38:14;;;;;;;4.10;0.90;;;;;;;;;;110414;267;39685;-40
2023/08/08 13:40:47;;;;;;;3.20;0.90;;;;;;;;;;110334;263;43869;-44
2023/08/08 13:43:21;;;;;;;2.80;0.90;;;;;;;;;;110340;267;42052;-38
2023/08/08 13:45:54;;;;;;;2.70;0.90;;;;;;;;;;110348;259;39964;-39
2023/08/08 13:48:28;;;;;;;3.40;1.20;;;;;;;;;;110331;267;40066;-37
2023/08/08 13:51:02;;;;;;;3.60;1.10;;;;;;;;;;110318;267;42745;-36
2023/08/08 13:53:38;;;;;;;2.90;0.90;;;;;;;;;;110366;260;41974;-38
2023/08/08 13:56:11;;;;;;;3.60;0.90;;;;;;;;;;110381;259;38608;-37
2023/08/08 13:58:47;;;;;;;3.00;0.80;;;;;;;;;;110364;267;39738;-40
2023/08/08 14:01:20;;;;;;;3.50;0.90;;;;;;;;;;110333;259;42943;-39
2023/08/08 14:03:55;;;;;;;2.70;1.00;;;;;;;;;;110349;259;41867;-38
2023/08/08 14:06:28;;;;;;;3.30;0.90;;;;;;;;;;110372;267;38637;-36
2023/08/08 14:09:03;;;;;;;3.00;0.90;;;;;;;;;;110381;267;39991;-38
2023/08/08 14:11:36;;;;;;;4.00;1.20;;;;;;;;;;110339;267;42537;-37
2023/08/08 14:14:10;;;;;;;3.60;0.90;;;;;;;;;;110434;267;42225;-40
2023/08/08 14:16:43;;;;;;;3.40;1.00;;;;;;;;;;110397;264;40014;-39
2023/08/08 14:19:17;;;;;;;4.50;1.00;;;;;;;;;;110393;267;39613;-38
2023/08/08 14:21:52;;;;;;;3.70;1.20;;;;;;;;;;110361;267;42736;-37
2023/08/08 14:24:25;;;;;;;2.80;0.90;;;;;;;;;;110401;267;42242;-37
2023/08/08 14:27:01;;;;;;;2.70;0.90;;;;;;;;;;110313;259;175540;-37
2023/08/08 14:29:34;;;;;;;2.20;0.90;;;;;;;;;;110358;267;39488;-37
2023/08/08 14:32:10;;;;;;;4.10;1.30;;;;;;;;;;110338;267;43013;-36
2023/08/08 14:34:48;;;;;;;3.10;1.00;;;;;;;;;;110231;267;175559;-36
2023/08/08 14:37:22;;;;;;;3.70;1.10;;;;;;;;;;110332;266;38681;-37
2023/08/08 14:39:57;;;;;;;3.30;1.10;;;;;;;;;;110406;263;39586;-39
2023/08/08 14:42:31;;;;;;;3.20;1.10;;;;;;;;;;110331;266;49533;-38
2023/08/08 14:45:11;;;;;;;3.40;1.00;;;;;;;;;;110378;263;43308;-40
2023/08/08 14:47:45;;;;;;;2.80;0.90;;;;;;;;;;110419;263;38423;-36
2023/08/08 14:50:22;;;;;;;3.10;1.00;;;;;;;;;;110317;259;39349;-38
2023/08/08 14:52:58;;;;;;;3.00;0.90;;;;;;;;;;110345;266;48879;-37
2023/08/08 14:55:34;;;;;;;2.40;0.90;;;;;;;;;;110401;267;43502;-36
2023/08/08 14:58:09;;;;;;;3.50;0.90;;;;;;;;;;110345;263;38921;-40
2023/08/08 15:00:44;;;;;;;2.80;1.00;;;;;;;;;;110338;266;39509;-40
2023/08/08 15:03:19;;;;;;;2.30;0.80;;;;;;;;;;110338;264;50376;-42
2023/08/08 15:05:54;;;;;;;2.70;0.80;;;;;;;;;;110375;267;41769;-50
2023/08/08 15:08:28;;;;;;;5.00;1.00;;;;;;;;;;110361;259;39941;-37
2023/08/08 15:11:01;;;;;;;2.70;0.80;;;;;;;;;;110306;263;39999;-43
2023/08/08 15:13:35;;;;;;;2.20;0.80;;;;;;;;;;110393;259;50007;-41
2023/08/08 15:16:09;;;;;;;2.80;0.70;;;;;;;;;;110372;267;42057;-41
2023/08/08 15:18:45;;;;;;;2.40;0.80;;;;;;;;;;110307;260;38754;-37
2023/08/08 15:21:21;;;;;;;2.40;0.80;;;;;;;;;;110297;267;39970;-35
2023/08/08 15:23:58;;;;;;;2.40;0.80;;;;;;;;;;110270;267;51045;-37
2023/08/08 15:26:41;;;;;;;2.70;0.90;;;;;;;;;;110297;267;42169;-37
2023/08/08 15:29:22;;;;;;;2.50;0.80;;;;;;;;;;110299;267;38523;-35
2023/08/08 15:32:00;;;;;;;3.20;0.80;;;;;;;;;;110237;267;40044;-38
2023/08/08 15:34:36;;;;;;;2.40;0.80;;;;;;;;;;110299;267;42864;-37
2023/08/08 15:37:11;;;;;;;3.10;0.80;;;;;;;;;;110296;267;42152;-36
2023/08/08 15:39:48;;;;;;;2.10;0.70;;;;;;;;;;110315;267;38463;-36